Time;durP1;ratioP1;P1;durP2;ratioP2;P2;SDS_P1;SDS_P2;PMS_P1;PMS_P2;Temp;Humidity;BMP_temperature;BMP_pressure;BME280_temperature;BME280_humidity;BME280_pressure;Samples;Min_cycle;Max_cycle;Signal;HPM_P1;HPM_P2
2023/11/10 00:01:36;;;;;;;1.88;0.60;;;20.60;55.50;;;;;;5021404;28;20742;-64
2023/11/10 00:04:04;;;;;;;0.80;0.60;;;20.60;55.50;;;;;;5021921;28;20061;-64
2023/11/10 00:06:31;;;;;;;0.80;0.60;;;20.60;55.50;;;;;;5023580;28;20080;-65
2023/11/10 00:08:57;;;;;;;1.27;0.65;;;20.60;55.50;;;;;;5021525;28;20068;-64
2023/11/10 00:11:26;;;;;;;0.70;0.52;;;20.60;55.50;;;;;;5020007;28;20044;-64
2023/11/10 00:13:53;;;;;;;0.85;0.70;;;20.60;55.60;;;;;;5023295;28;20021;-65
2023/11/10 00:16:19;;;;;;;0.75;0.55;;;20.60;55.50;;;;;;5021232;28;20021;-64
2023/11/10 00:18:45;;;;;;;0.70;0.60;;;20.60;55.50;;;;;;5004646;28;20030;-64
2023/11/10 00:21:19;;;;;;;1.20;0.70;;;20.60;55.60;;;;;;5022723;28;20115;-64
2023/11/10 00:23:45;;;;;;;0.68;0.60;;;20.60;55.60;;;;;;5021352;28;20030;-68
2023/11/10 00:26:21;;;;;;;0.80;0.60;;;20.60;55.60;;;;;;5018502;28;20419;-68
2023/11/10 00:28:47;;;;;;;1.10;0.60;;;20.50;55.60;;;;;;5021151;28;20120;-68
2023/11/10 00:31:13;;;;;;;1.25;0.70;;;20.50;55.50;;;;;;5018416;28;20145;-68
2023/11/10 00:33:38;;;;;;;1.00;0.50;;;20.50;55.50;;;;;;5023318;28;20018;-68
2023/11/10 00:36:04;;;;;;;0.98;0.60;;;20.50;55.60;;;;;;5021033;28;20032;-68
2023/11/10 00:38:30;;;;;;;0.98;0.68;;;20.50;55.60;;;;;;5022407;28;20401;-68
2023/11/10 00:40:56;;;;;;;0.73;0.50;;;20.50;55.60;;;;;;5020904;28;20064;-68
2023/11/10 00:43:22;;;;;;;0.77;0.70;;;20.50;55.60;;;;;;5020603;28;20051;-68
2023/11/10 00:45:47;;;;;;;0.70;0.60;;;20.50;55.60;;;;;;5020492;28;20010;-68
2023/11/10 00:48:13;;;;;;;1.05;0.60;;;20.50;55.60;;;;;;5021223;28;20027;-68
2023/11/10 00:50:39;;;;;;;0.90;0.60;;;20.50;55.60;;;;;;5022014;28;20046;-68
2023/11/10 00:53:04;;;;;;;0.80;0.50;;;20.50;55.60;;;;;;5017846;28;20049;-68
2023/11/10 00:55:30;;;;;;;1.33;0.50;;;20.50;55.60;;;;;;5019974;28;20029;-68
2023/11/10 00:57:55;;;;;;;1.50;0.70;;;20.50;55.70;;;;;;5021614;28;20053;-68
2023/11/10 01:00:22;;;;;;;1.00;0.70;;;20.50;55.70;;;;;;5022222;28;20389;-68
2023/11/10 01:02:50;;;;;;;0.88;0.60;;;20.50;55.70;;;;;;5034143;28;20021;-68
2023/11/10 01:05:19;;;;;;;0.98;0.70;;;20.50;55.70;;;;;;5021937;28;20091;-66
2023/11/10 01:07:45;;;;;;;0.60;0.60;;;20.40;55.60;;;;;;5020226;28;20025;-65
2023/11/10 01:10:12;;;;;;;0.68;0.52;;;20.40;55.60;;;;;;5018653;28;20026;-64
2023/11/10 01:12:41;;;;;;;0.70;0.70;;;20.40;55.70;;;;;;5016899;28;20034;-66
2023/11/10 01:15:08;;;;;;;1.27;0.57;;;20.40;55.60;;;;;;5016732;28;20040;-64
2023/11/10 01:17:34;;;;;;;1.38;0.60;;;20.40;55.60;;;;;;5021179;28;20055;-64
2023/11/10 01:20:04;;;;;;;0.65;0.50;;;20.40;55.70;;;;;;5020959;28;20563;-64
2023/11/10 01:22:30;;;;;;;0.60;0.60;;;20.40;55.70;;;;;;5020770;28;20044;-64
2023/11/10 01:24:55;;;;;;;0.80;0.60;;;20.40;55.70;;;;;;5021868;28;20481;-64
2023/11/10 01:27:21;;;;;;;0.80;0.60;;;20.40;55.70;;;;;;5019350;28;20033;-64
2023/11/10 01:29:46;;;;;;;0.98;0.63;;;20.40;55.70;;;;;;5020647;28;20025;-65
2023/11/10 01:32:13;;;;;;;0.63;0.50;;;20.40;55.70;;;;;;5019098;28;20029;-64
2023/11/10 01:34:39;;;;;;;0.63;0.52;;;20.40;55.70;;;;;;5013256;28;20026;-68
2023/11/10 01:37:08;;;;;;;0.60;0.50;;;20.40;55.70;;;;;;5003993;28;20615;-68
2023/11/10 01:39:33;;;;;;;0.68;0.50;;;20.40;55.70;;;;;;5017747;28;20442;-68
2023/11/10 01:41:59;;;;;;;0.57;0.50;;;20.40;55.80;;;;;;5018336;28;20034;-68
2023/11/10 01:44:25;;;;;;;0.88;0.60;;;20.40;56.20;;;;;;5020933;28;20026;-68
2023/11/10 01:46:52;;;;;;;0.80;0.63;;;20.40;55.70;;;;;;5017630;28;20056;-68
2023/11/10 01:49:21;;;;;;;1.58;0.60;;;20.40;55.80;;;;;;5019839;28;20442;-68
2023/11/10 01:51:50;;;;;;;0.88;0.57;;;20.40;55.80;;;;;;5002684;28;20029;-68
2023/11/10 01:54:21;;;;;;;1.17;0.70;;;20.30;55.70;;;;;;5021408;28;20034;-68
2023/11/10 01:56:47;;;;;;;0.80;0.60;;;20.30;55.70;;;;;;5017091;28;20029;-68
2023/11/10 01:59:15;;;;;;;1.02;0.60;;;20.40;55.80;;;;;;5021638;28;20478;-68
2023/11/10 02:01:45;;;;;;;0.80;0.50;;;20.30;55.70;;;;;;5022386;28;20457;-68
2023/11/10 02:04:12;;;;;;;0.80;0.60;;;20.40;55.80;;;;;;5018457;28;20026;-69
2023/11/10 02:06:43;;;;;;;0.43;0.43;;;20.30;55.70;;;;;;5020229;28;20045;-68
2023/11/10 02:09:09;;;;;;;0.55;0.50;;;20.40;55.80;;;;;;5019311;28;20108;-69
2023/11/10 02:11:38;;;;;;;0.55;0.50;;;20.30;55.80;;;;;;5017241;28;20032;-68
2023/11/10 02:14:05;;;;;;;1.07;0.63;;;20.40;55.80;;;;;;5019093;28;20461;-68
2023/11/10 02:16:32;;;;;;;0.70;0.50;;;20.30;55.80;;;;;;5017006;28;20029;-68
2023/11/10 02:18:58;;;;;;;0.45;0.40;;;20.30;55.80;;;;;;5019877;28;20111;-68
2023/11/10 02:21:24;;;;;;;0.68;0.57;;;20.30;55.80;;;;;;5020607;28;20566;-68
2023/11/10 02:23:57;;;;;;;0.55;0.50;;;20.30;55.80;;;;;;5018786;28;20052;-68
2023/11/10 02:26:24;;;;;;;0.50;0.40;;;20.30;55.80;;;;;;5001197;28;20018;-68
2023/11/10 02:28:50;;;;;;;0.95;0.65;;;20.30;55.80;;;;;;5018760;28;20061;-68
2023/11/10 02:31:16;;;;;;;0.93;0.52;;;20.30;55.80;;;;;;5018165;28;20026;-68
2023/11/10 02:33:41;;;;;;;0.70;0.50;;;20.30;55.80;;;;;;5018852;28;20454;-68
2023/11/10 02:36:09;;;;;;;0.68;0.50;;;20.30;55.80;;;;;;5017889;28;20124;-68
2023/11/10 02:38:36;;;;;;;0.52;0.50;;;20.30;55.80;;;;;;5019153;28;20022;-68
2023/11/10 02:41:03;;;;;;;0.82;0.50;;;20.30;55.80;;;;;;5017760;28;20039;-68
2023/11/10 02:43:28;;;;;;;0.40;0.40;;;20.30;55.80;;;;;;5018040;28;20024;-68
2023/11/10 02:45:54;;;;;;;1.00;0.60;;;20.30;55.80;;;;;;5018702;28;20116;-68
2023/11/10 02:48:19;;;;;;;0.43;0.43;;;20.20;55.80;;;;;;5017669;28;20481;-68
2023/11/10 02:50:46;;;;;;;0.40;0.40;;;20.20;55.80;;;;;;5018138;28;20094;-68
2023/11/10 02:53:13;;;;;;;0.70;0.60;;;20.30;55.90;;;;;;5020664;28;20068;-68
2023/11/10 02:55:38;;;;;;;0.80;0.68;;;20.30;55.90;;;;;;5017973;28;20026;-68
2023/11/10 02:58:04;;;;;;;0.88;0.60;;;20.20;55.80;;;;;;5018396;28;20034;-68
2023/11/10 03:00:30;;;;;;;0.95;0.50;;;20.20;55.80;;;;;;5016615;28;20450;-69
2023/11/10 03:02:56;;;;;;;0.70;0.60;;;20.20;55.80;;;;;;5017790;28;20105;-68
2023/11/10 03:05:21;;;;;;;0.85;0.60;;;20.20;55.80;;;;;;5018426;28;20121;-68
2023/11/10 03:07:47;;;;;;;0.73;0.50;;;20.20;55.80;;;;;;5020097;28;20393;-68
2023/11/10 03:10:14;;;;;;;0.70;0.55;;;20.20;56.40;;;;;;5015170;28;20493;-68
2023/11/10 03:12:40;;;;;;;0.82;0.50;;;20.20;55.90;;;;;;5015744;28;20103;-68
2023/11/10 03:15:06;;;;;;;0.80;0.50;;;20.20;55.80;;;;;;5016831;28;20026;-69
2023/11/10 03:17:32;;;;;;;0.40;0.38;;;20.20;55.90;;;;;;5018293;28;20048;-67
2023/11/10 03:19:58;;;;;;;1.40;0.70;;;20.20;55.90;;;;;;5019895;28;20069;-69
2023/11/10 03:22:23;;;;;;;0.75;0.60;;;20.20;55.90;;;;;;5034353;28;20030;-68
2023/11/10 03:24:49;;;;;;;0.50;0.50;;;20.20;55.90;;;;;;5018573;28;20042;-69
2023/11/10 03:27:15;;;;;;;0.90;0.50;;;20.20;55.90;;;;;;5016223;28;20057;-68
2023/11/10 03:29:42;;;;;;;0.57;0.50;;;20.20;55.90;;;;;;5019322;28;20453;-68
2023/11/10 03:32:08;;;;;;;0.80;0.60;;;20.20;55.90;;;;;;5017383;28;20064;-68
2023/11/10 03:34:39;;;;;;;1.13;0.60;;;20.20;55.90;;;;;;5020531;28;20034;-69
2023/11/10 03:37:04;;;;;;;0.85;0.60;;;20.20;55.90;;;;;;5018322;28;20537;-68
2023/11/10 03:39:30;;;;;;;0.52;0.40;;;20.20;55.90;;;;;;5016904;28;20026;-68
2023/11/10 03:42:00;;;;;;;0.50;0.50;;;20.20;55.90;;;;;;5018581;28;20427;-69
2023/11/10 03:44:28;;;;;;;0.47;0.45;;;20.20;55.90;;;;;;5017912;28;20367;-68
2023/11/10 03:46:54;;;;;;;0.90;0.55;;;20.20;55.90;;;;;;5016892;28;20021;-68
2023/11/10 03:49:20;;;;;;;0.50;0.45;;;20.20;56.00;;;;;;5020231;28;20040;-69
2023/11/10 03:51:46;;;;;;;0.47;0.45;;;20.10;55.80;;;;;;5018675;28;20501;-68
2023/11/10 03:54:13;;;;;;;0.70;0.60;;;20.10;55.90;;;;;;5019501;28;20029;-69
2023/11/10 03:56:39;;;;;;;0.75;0.50;;;20.10;55.90;;;;;;5016164;28;20537;-69
2023/11/10 03:59:07;;;;;;;0.80;0.50;;;20.10;55.90;;;;;;5018477;28;20104;-69
2023/11/10 04:01:33;;;;;;;0.57;0.50;;;20.10;55.90;;;;;;5017486;28;20026;-69
2023/11/10 04:03:59;;;;;;;0.50;0.43;;;20.10;55.90;;;;;;5016670;28;20038;-69
2023/11/10 04:06:25;;;;;;;0.43;0.43;;;20.10;55.90;;;;;;5017760;28;20034;-69
2023/11/10 04:08:51;;;;;;;0.70;0.60;;;20.10;56.40;;;;;;5019986;28;20052;-69
2023/11/10 04:11:16;;;;;;;0.60;0.60;;;20.10;55.90;;;;;;5018176;28;20032;-69
2023/11/10 04:13:42;;;;;;;0.65;0.50;;;20.10;55.90;;;;;;5014553;28;20025;-69
2023/11/10 04:16:21;;;;;;;0.43;0.43;;;20.10;55.90;;;;;;5017803;28;20026;-69
2023/11/10 04:18:50;;;;;;;0.50;0.50;;;20.10;55.90;;;;;;5016513;28;20106;-69
2023/11/10 04:21:20;;;;;;;0.60;0.60;;;20.10;55.90;;;;;;5017871;28;20061;-69
2023/11/10 04:23:46;;;;;;;1.02;0.60;;;20.00;55.90;;;;;;5017846;28;20100;-69
2023/11/10 04:26:13;;;;;;;0.40;0.40;;;20.10;55.90;;;;;;5016384;28;20416;-68
2023/11/10 04:28:39;;;;;;;0.65;0.65;;;20.10;55.90;;;;;;5020046;28;20049;-68
2023/11/10 04:31:05;;;;;;;0.80;0.50;;;20.10;55.90;;;;;;5020215;28;20029;-68
2023/11/10 04:33:31;;;;;;;0.52;0.50;;;20.10;56.00;;;;;;5020793;28;20469;-68
2023/11/10 04:35:57;;;;;;;0.40;0.40;;;20.10;56.00;;;;;;5020388;28;20041;-68
2023/11/10 04:38:23;;;;;;;0.57;0.50;;;20.10;56.00;;;;;;5022723;28;20083;-68
2023/11/10 04:40:52;;;;;;;0.98;0.60;;;20.00;55.90;;;;;;5021229;28;20519;-68
2023/11/10 04:43:18;;;;;;;0.65;0.50;;;20.00;56.00;;;;;;5019884;28;20021;-68
2023/11/10 04:45:44;;;;;;;0.75;0.60;;;20.00;56.00;;;;;;5020459;28;20124;-68
2023/11/10 04:48:10;;;;;;;0.40;0.40;;;20.00;56.00;;;;;;5020909;28;20041;-68
2023/11/10 04:50:36;;;;;;;0.50;0.50;;;20.00;56.00;;;;;;5021307;28;20030;-68
2023/11/10 04:53:03;;;;;;;0.63;0.50;;;20.00;56.00;;;;;;5021824;28;20083;-68
2023/11/10 04:55:29;;;;;;;0.50;0.50;;;20.00;56.00;;;;;;5020764;28;20088;-68
2023/11/10 04:57:55;;;;;;;0.50;0.50;;;20.00;56.00;;;;;;5017994;28;20029;-68
2023/11/10 05:00:23;;;;;;;0.45;0.45;;;20.00;56.00;;;;;;5020387;28;20504;-68
2023/11/10 05:02:49;;;;;;;0.88;0.50;;;20.00;56.00;;;;;;5022968;28;20091;-68
2023/11/10 05:05:15;;;;;;;0.80;0.55;;;20.00;56.00;;;;;;5021743;28;20040;-68
2023/11/10 05:07:42;;;;;;;0.68;0.60;;;20.00;56.00;;;;;;5021356;28;20029;-68
2023/11/10 05:10:12;;;;;;;0.73;0.60;;;20.00;56.00;;;;;;5022079;28;20385;-67
2023/11/10 05:12:37;;;;;;;0.50;0.50;;;20.00;56.00;;;;;;5018523;28;20477;-68
2023/11/10 05:15:05;;;;;;;0.50;0.50;;;20.00;56.10;;;;;;5022191;28;20096;-68
2023/11/10 05:17:39;;;;;;;0.50;0.45;;;20.00;56.10;;;;;;5018097;28;20025;-68
2023/11/10 05:20:12;;;;;;;1.30;0.70;;;20.00;56.00;;;;;;5020621;28;20030;-67
2023/11/10 05:22:42;;;;;;;0.63;0.50;;;20.00;56.10;;;;;;5018463;28;20033;-68
2023/11/10 05:25:11;;;;;;;0.70;0.50;;;20.00;56.10;;;;;;5020774;28;20029;-67
2023/11/10 05:27:36;;;;;;;0.50;0.50;;;19.90;56.00;;;;;;5018925;28;20033;-68
2023/11/10 05:30:03;;;;;;;0.65;0.50;;;20.00;56.10;;;;;;5035560;28;20034;-67
2023/11/10 05:32:29;;;;;;;0.70;0.50;;;20.00;56.10;;;;;;5020397;28;20026;-68
2023/11/10 05:34:54;;;;;;;0.40;0.40;;;19.90;56.10;;;;;;5020574;28;20022;-67
2023/11/10 05:37:21;;;;;;;0.50;0.50;;;20.00;56.20;;;;;;5021011;28;20037;-69
2023/11/10 05:39:47;;;;;;;0.55;0.43;;;19.90;56.10;;;;;;5019471;28;20028;-69
2023/11/10 05:42:13;;;;;;;0.60;0.50;;;19.90;56.10;;;;;;5019942;28;20021;-69
2023/11/10 05:44:39;;;;;;;0.40;0.40;;;19.90;56.10;;;;;;5003227;28;20026;-69
2023/11/10 05:47:06;;;;;;;0.68;0.50;;;19.90;56.10;;;;;;5020505;28;20370;-69
2023/11/10 05:49:32;;;;;;;0.82;0.60;;;19.90;56.10;;;;;;5017743;28;20469;-69
2023/11/10 05:51:58;;;;;;;0.57;0.55;;;19.90;56.10;;;;;;5018630;28;20356;-69
2023/11/10 05:54:24;;;;;;;0.77;0.65;;;19.90;56.10;;;;;;5035513;28;20037;-69
2023/11/10 05:56:49;;;;;;;0.80;0.50;;;19.90;56.10;;;;;;5020131;28;20105;-69
2023/11/10 05:59:15;;;;;;;1.23;0.50;;;19.90;56.10;;;;;;5033066;28;20031;-69
2023/11/10 06:01:41;;;;;;;0.80;0.65;;;19.90;56.10;;;;;;5019146;28;20057;-69
2023/11/10 06:04:07;;;;;;;0.77;0.70;;;19.90;56.10;;;;;;5019384;28;20091;-69
2023/11/10 06:06:33;;;;;;;0.50;0.50;;;19.90;56.10;;;;;;5018135;28;20121;-69
2023/11/10 06:08:58;;;;;;;0.60;0.50;;;19.90;56.20;;;;;;5020141;28;20049;-69
2023/11/10 06:11:24;;;;;;;0.65;0.47;;;19.90;56.20;;;;;;5001790;28;20041;-69
2023/11/10 06:13:51;;;;;;;0.57;0.50;;;19.90;56.20;;;;;;5015397;28;20512;-69
2023/11/10 06:16:21;;;;;;;0.40;0.40;;;19.90;56.70;;;;;;5034445;28;20052;-65
2023/11/10 06:18:46;;;;;;;0.60;0.45;;;19.90;56.20;;;;;;5017353;28;20026;-66
2023/11/10 06:21:13;;;;;;;0.55;0.50;;;19.90;56.20;;;;;;5020365;28;20094;-64
2023/11/10 06:23:39;;;;;;;0.40;0.40;;;19.90;56.20;;;;;;5021853;28;20026;-65
2023/11/10 06:26:08;;;;;;;1.02;0.50;;;19.90;56.20;;;;;;5002370;28;20116;-64
2023/11/10 06:28:36;;;;;;;1.05;0.57;;;19.90;56.20;;;;;;5016926;28;20439;-64
2023/11/10 06:31:03;;;;;;;0.50;0.45;;;19.90;56.20;;;;;;5020092;28;20022;-64
2023/11/10 06:33:29;;;;;;;0.73;0.40;;;19.90;56.20;;;;;;5001616;28;20037;-64
2023/11/10 06:35:55;;;;;;;1.25;0.60;;;19.90;56.20;;;;;;5002605;28;20034;-64
2023/11/10 06:38:21;;;;;;;0.50;0.50;;;19.80;56.20;;;;;;5019051;28;20057;-65
2023/11/10 06:40:48;;;;;;;0.60;0.60;;;19.80;56.20;;;;;;5019982;28;20111;-66
2023/11/10 06:43:14;;;;;;;0.50;0.43;;;19.80;56.30;;;;;;5015681;28;20025;-65
2023/11/10 06:45:39;;;;;;;1.35;0.40;;;19.90;56.30;;;;;;5002436;28;20045;-68
2023/11/10 06:48:05;;;;;;;0.60;0.55;;;19.80;56.30;;;;;;5032602;28;20041;-68
2023/11/10 06:50:31;;;;;;;0.43;0.43;;;19.80;56.60;;;;;;4984109;28;20022;-67
2023/11/10 06:52:58;;;;;;;0.82;0.50;;;19.80;56.70;;;;;;5017937;28;20033;-66
2023/11/10 06:55:23;;;;;;;0.50;0.45;;;19.80;57.00;;;;;;5020416;28;20060;-67
2023/11/10 06:57:49;;;;;;;0.55;0.45;;;19.90;57.20;;;;;;5017258;28;20115;-67
2023/11/10 07:00:15;;;;;;;0.65;0.60;;;19.90;57.20;;;;;;4999356;28;20034;-68
2023/11/10 07:02:41;;;;;;;0.70;0.50;;;19.90;57.10;;;;;;5016038;28;20032;-67
2023/11/10 07:05:10;;;;;;;0.40;0.40;;;19.90;57.10;;;;;;5020434;28;20022;-67
2023/11/10 07:07:38;;;;;;;0.57;0.40;;;19.90;57.00;;;;;;5035715;28;20033;-68
2023/11/10 07:10:05;;;;;;;0.70;0.50;;;19.90;56.90;;;;;;5017789;28;20092;-68
2023/11/10 07:12:31;;;;;;;0.60;0.47;;;19.90;56.90;;;;;;5019473;28;20500;-67
2023/11/10 07:14:57;;;;;;;0.50;0.40;;;20.00;56.80;;;;;;5016066;28;20021;-67
2023/11/10 07:17:22;;;;;;;0.50;0.50;;;20.00;56.80;;;;;;5000066;28;20037;-68
2023/11/10 07:19:48;;;;;;;0.50;0.50;;;20.00;56.80;;;;;;5000939;28;20443;-67
2023/11/10 07:22:14;;;;;;;0.57;0.50;;;20.00;56.70;;;;;;5017983;28;20034;-68
2023/11/10 07:24:40;;;;;;;0.50;0.50;;;20.10;56.70;;;;;;5020800;28;20038;-68
2023/11/10 07:27:09;;;;;;;0.70;0.50;;;20.10;56.70;;;;;;5019491;28;20088;-69
2023/11/10 07:29:35;;;;;;;0.73;0.55;;;20.10;57.20;;;;;;5017576;28;20075;-69
2023/11/10 07:32:01;;;;;;;0.50;0.43;;;20.10;56.60;;;;;;5019349;28;20053;-69
2023/11/10 07:34:27;;;;;;;1.02;0.60;;;20.20;56.60;;;;;;4985177;28;20022;-69
2023/11/10 07:36:53;;;;;;;1.85;0.45;;;20.20;56.60;;;;;;5019469;28;20026;-69
2023/11/10 07:39:20;;;;;;;1.23;0.52;;;20.20;56.60;;;;;;5019112;28;20084;-69
2023/11/10 07:41:45;;;;;;;1.08;0.60;;;20.20;56.50;;;;;;5019767;28;20054;-69
2023/11/10 07:44:12;;;;;;;1.70;0.60;;;20.20;56.50;;;;;;5015856;28;20030;-69
2023/11/10 07:46:38;;;;;;;0.52;0.50;;;20.20;56.50;;;;;;5018538;28;20386;-70
2023/11/10 07:49:04;;;;;;;1.65;0.50;;;20.30;57.00;;;;;;5016546;28;20030;-70
2023/11/10 07:51:30;;;;;;;1.35;0.55;;;20.30;56.40;;;;;;5018565;28;20036;-69
2023/11/10 07:53:55;;;;;;;1.08;0.60;;;20.30;56.40;;;;;;5018106;28;20021;-70
2023/11/10 07:56:21;;;;;;;1.30;0.60;;;20.30;56.40;;;;;;5019515;28;20034;-67
2023/11/10 07:58:47;;;;;;;0.50;0.50;;;20.30;56.40;;;;;;5018742;28;20101;-67
2023/11/10 08:01:13;;;;;;;0.80;0.50;;;20.30;56.30;;;;;;5018398;28;20025;-66
2023/11/10 08:03:42;;;;;;;1.05;0.60;;;20.30;56.30;;;;;;5037074;28;20045;-66
2023/11/10 08:06:09;;;;;;;0.77;0.50;;;20.40;56.30;;;;;;5022992;28;20029;-67
2023/11/10 08:08:35;;;;;;;1.10;0.60;;;20.40;56.40;;;;;;5022121;28;20323;-67
2023/11/10 08:11:01;;;;;;;1.40;0.80;;;20.50;56.40;;;;;;5023469;28;20030;-67
2023/11/10 08:13:27;;;;;;;1.98;0.80;;;20.50;56.30;;;;;;5020214;28;20376;-66
2023/11/10 08:15:53;;;;;;;1.60;0.63;;;20.70;56.20;;;;;;5020716;28;20018;-68
2023/11/10 08:18:18;;;;;;;2.78;0.70;;;20.80;55.90;;;;;;5019170;28;20025;-68
2023/11/10 08:20:44;;;;;;;2.10;0.80;;;20.90;55.60;;;;;;5019233;28;20061;-67
2023/11/10 08:23:10;;;;;;;1.23;0.65;;;21.00;55.20;;;;;;5025146;28;20048;-68
2023/11/10 08:25:36;;;;;;;1.02;0.80;;;21.10;55.20;;;;;;5021087;28;20366;-66
2023/11/10 08:28:05;;;;;;;2.80;0.82;;;21.20;54.80;;;;;;5021322;28;20033;-68
2023/11/10 08:30:32;;;;;;;1.58;0.80;;;21.30;54.60;;;;;;5018184;28;20117;-67
2023/11/10 08:32:59;;;;;;;2.13;0.70;;;21.30;54.50;;;;;;5020420;28;20029;-66
2023/11/10 08:35:25;;;;;;;1.50;0.80;;;21.40;54.40;;;;;;5021386;28;20105;-67
2023/11/10 08:37:51;;;;;;;1.35;0.80;;;21.50;54.40;;;;;;5021368;28;20025;-70
2023/11/10 08:40:16;;;;;;;1.10;0.60;;;21.60;54.30;;;;;;5016235;28;20037;-69
2023/11/10 08:42:43;;;;;;;1.38;0.70;;;21.60;54.10;;;;;;5005084;28;20034;-70
2023/11/10 08:45:10;;;;;;;1.10;0.60;;;21.70;54.00;;;;;;5019785;28;20022;-69
2023/11/10 08:47:36;;;;;;;1.75;0.80;;;21.70;53.50;;;;;;5020102;28;20026;-69
2023/11/10 08:50:02;;;;;;;1.23;0.80;;;21.70;53.50;;;;;;5018708;28;20031;-69
2023/11/10 08:52:28;;;;;;;2.13;0.90;;;21.70;53.40;;;;;;5021945;28;20026;-70
2023/11/10 08:54:55;;;;;;;2.08;0.75;;;21.70;53.40;;;;;;5021244;28;20023;-69
2023/11/10 08:57:21;;;;;;;1.42;0.70;;;21.70;53.30;;;;;;5021427;28;20026;-69
2023/11/10 08:59:47;;;;;;;1.60;0.77;;;21.70;53.30;;;;;;5020373;28;20030;-69
2023/11/10 09:02:13;;;;;;;1.52;0.88;;;21.60;53.20;;;;;;5020209;28;20032;-69
2023/11/10 09:04:38;;;;;;;2.50;1.00;;;21.60;53.10;;;;;;5022488;28;20030;-69
2023/11/10 09:07:04;;;;;;;1.83;0.88;;;21.60;53.10;;;;;;5020010;28;20465;-70
2023/11/10 09:09:30;;;;;;;1.08;0.88;;;21.60;53.20;;;;;;5018373;28;20527;-70
2023/11/10 09:11:57;;;;;;;1.08;0.60;;;21.60;53.30;;;;;;5018507;28;20029;-70
2023/11/10 09:14:23;;;;;;;1.63;0.80;;;21.60;53.10;;;;;;5017966;28;20018;-69
2023/11/10 09:16:49;;;;;;;2.42;0.90;;;21.60;53.10;;;;;;5019510;28;20159;-65
2023/11/10 09:19:15;;;;;;;1.48;0.80;;;21.60;53.10;;;;;;5020563;28;20057;-64
2023/11/10 09:21:41;;;;;;;1.70;0.90;;;21.50;53.10;;;;;;5021037;28;20057;-65
2023/11/10 09:24:07;;;;;;;1.80;0.90;;;21.50;53.20;;;;;;5021100;28;20037;-64
2023/11/10 09:26:33;;;;;;;1.75;0.95;;;21.50;53.10;;;;;;5020578;28;20545;-65
2023/11/10 09:28:59;;;;;;;2.25;0.98;;;21.50;53.20;;;;;;5018348;28;20029;-65
2023/11/10 09:31:25;;;;;;;2.28;0.82;;;21.50;53.30;;;;;;5021587;28;20030;-65
2023/11/10 09:33:53;;;;;;;1.73;0.90;;;21.50;53.30;;;;;;5002734;28;20103;-64
2023/11/10 09:36:19;;;;;;;1.60;0.70;;;21.40;53.40;;;;;;5023594;28;20060;-66
2023/11/10 09:38:45;;;;;;;2.95;1.00;;;21.40;53.50;;;;;;5034703;28;20030;-64
2023/11/10 09:41:15;;;;;;;1.65;0.90;;;21.40;53.50;;;;;;5036559;28;20040;-65
2023/11/10 09:43:44;;;;;;;1.50;0.90;;;21.40;53.50;;;;;;5020650;28;20488;-65
2023/11/10 09:46:10;;;;;;;1.15;0.70;;;21.40;53.50;;;;;;5002431;28;20026;-66
2023/11/10 09:48:36;;;;;;;1.90;0.88;;;21.40;53.40;;;;;;5020314;28;20025;-67
2023/11/10 09:51:03;;;;;;;1.20;0.90;;;21.40;53.40;;;;;;5021753;28;20081;-67
2023/11/10 09:53:30;;;;;;;1.23;0.70;;;21.40;53.40;;;;;;5020339;28;20501;-67
2023/11/10 09:55:56;;;;;;;1.20;0.73;;;21.40;53.50;;;;;;5001793;28;20033;-66
2023/11/10 09:58:21;;;;;;;1.40;0.77;;;21.40;53.50;;;;;;5019902;28;20026;-66
2023/11/10 10:00:48;;;;;;;1.88;1.02;;;21.40;53.50;;;;;;5014945;28;20026;-67
2023/11/10 10:03:14;;;;;;;1.70;0.80;;;21.40;53.50;;;;;;5017444;28;20032;-67
2023/11/10 10:05:42;;;;;;;1.48;0.82;;;21.30;53.40;;;;;;5022789;28;20029;-67
2023/11/10 10:08:08;;;;;;;1.50;1.07;;;21.30;53.50;;;;;;5020484;28;20528;-67
2023/11/10 10:10:37;;;;;;;1.80;0.80;;;21.30;53.50;;;;;;5018398;28;20112;-67
2023/11/10 10:13:03;;;;;;;1.35;0.80;;;21.30;53.60;;;;;;5019699;28;20482;-67
2023/11/10 10:15:31;;;;;;;1.02;0.70;;;21.30;53.60;;;;;;5019906;28;20095;-67
2023/11/10 10:18:09;;;;;;;2.38;0.90;;;21.30;53.60;;;;;;5004260;28;20028;-69
2023/11/10 10:20:36;;;;;;;2.38;0.70;;;21.30;53.50;;;;;;5018517;28;20119;-69
2023/11/10 10:23:01;;;;;;;0.80;0.70;;;21.20;53.50;;;;;;5019611;28;20160;-69
2023/11/10 10:25:27;;;;;;;1.35;0.80;;;21.20;53.50;;;;;;5017935;28;20065;-70
2023/11/10 10:27:53;;;;;;;1.35;0.68;;;21.20;53.60;;;;;;5018662;28;20033;-67
2023/11/10 10:30:19;;;;;;;1.25;0.73;;;21.20;53.60;;;;;;5017507;28;20029;-67
2023/11/10 10:32:46;;;;;;;1.27;0.80;;;21.20;53.60;;;;;;5019134;28;20040;-67
2023/11/10 10:35:12;;;;;;;1.13;0.70;;;21.20;53.50;;;;;;5019648;28;20021;-67
2023/11/10 10:37:42;;;;;;;1.20;0.70;;;21.20;53.50;;;;;;5017793;28;20024;-68
2023/11/10 10:40:09;;;;;;;1.17;0.73;;;21.20;53.50;;;;;;5018620;28;20077;-67
2023/11/10 10:42:36;;;;;;;1.25;0.70;;;21.10;53.50;;;;;;5018024;28;20042;-67
2023/11/10 10:45:06;;;;;;;1.48;0.90;;;21.10;53.50;;;;;;5016256;28;20481;-67
2023/11/10 10:47:36;;;;;;;1.30;0.73;;;21.10;53.60;;;;;;5019474;28;20029;-68
2023/11/10 10:50:07;;;;;;;0.90;0.65;;;21.10;53.60;;;;;;5016125;28;20116;-67
2023/11/10 10:52:33;;;;;;;1.67;0.75;;;21.10;53.60;;;;;;5018952;28;20018;-67
2023/11/10 10:55:02;;;;;;;1.38;0.75;;;21.10;53.60;;;;;;5002466;28;20490;-67
2023/11/10 10:57:28;;;;;;;0.93;0.70;;;21.10;53.60;;;;;;5018600;28;20018;-71
2023/11/10 10:59:54;;;;;;;1.40;0.90;;;21.00;53.60;;;;;;5018077;28;20473;-67
2023/11/10 11:02:22;;;;;;;1.25;0.60;;;21.10;53.70;;;;;;5019963;28;20037;-66
2023/11/10 11:04:53;;;;;;;1.38;0.70;;;21.00;53.70;;;;;;5016323;28;20037;-67
2023/11/10 11:07:46;;;;;;;1.58;0.70;;;21.10;53.70;;;;;;5034658;28;20030;-68
2023/11/10 11:10:50;;;;;;;1.00;0.80;;;21.10;53.80;;;;;;5018225;28;20753;-67
2023/11/10 11:13:50;;;;;;;1.15;0.70;;;21.00;53.90;;;;;;5019806;28;20321;-66
2023/11/10 11:16:26;;;;;;;1.40;0.80;;;21.00;54.00;;;;;;5017025;28;20053;-67
2023/11/10 11:18:54;;;;;;;1.40;0.60;;;21.10;54.50;;;;;;5020101;28;20549;-68
2023/11/10 11:21:21;;;;;;;1.75;0.82;;;21.10;54.10;;;;;;5019573;28;20033;-68
2023/11/10 11:23:51;;;;;;;1.05;0.70;;;21.10;54.10;;;;;;5020751;28;20099;-69
2023/11/10 11:26:16;;;;;;;1.70;0.75;;;21.10;54.10;;;;;;5020364;28;20096;-66
2023/11/10 11:28:43;;;;;;;1.35;0.77;;;21.10;54.10;;;;;;5019554;28;20093;-65
2023/11/10 11:31:11;;;;;;;1.20;0.65;;;21.10;54.10;;;;;;4998065;28;20063;-66
2023/11/10 11:33:46;;;;;;;0.70;0.60;;;21.10;54.10;;;;;;5017455;28;20037;-66
2023/11/10 11:36:15;;;;;;;1.20;0.73;;;21.10;54.00;;;;;;5018441;28;20043;-64
2023/11/10 11:38:42;;;;;;;1.77;0.80;;;21.10;54.00;;;;;;5020051;28;20095;-68
2023/11/10 11:41:07;;;;;;;1.13;0.70;;;21.20;54.10;;;;;;5022994;28;20496;-68
2023/11/10 11:43:33;;;;;;;2.13;0.70;;;21.20;54.00;;;;;;5022902;28;20033;-68
2023/11/10 11:46:01;;;;;;;1.38;0.70;;;21.20;54.10;;;;;;5022425;28;20438;-68
2023/11/10 11:48:27;;;;;;;1.27;0.80;;;21.20;54.10;;;;;;5022896;28;20539;-67
2023/11/10 11:50:55;;;;;;;1.48;0.80;;;21.20;54.20;;;;;;5020730;28;20029;-68
2023/11/10 11:53:25;;;;;;;0.95;0.60;;;21.20;54.20;;;;;;5021410;28;20022;-70
2023/11/10 11:55:52;;;;;;;1.23;0.70;;;21.20;54.20;;;;;;5020258;28;20130;-70
2023/11/10 11:58:19;;;;;;;1.58;0.80;;;21.20;54.80;;;;;;5005097;28;20022;-69
2023/11/10 12:00:47;;;;;;;1.33;0.60;;;21.30;54.80;;;;;;5021062;28;20234;-68
2023/11/10 12:03:13;;;;;;;1.05;0.60;;;21.30;54.30;;;;;;5023184;28;20037;-69
2023/11/10 12:05:40;;;;;;;1.15;0.73;;;21.30;54.80;;;;;;5020330;28;20030;-69
2023/11/10 12:08:06;;;;;;;0.77;0.60;;;21.30;54.30;;;;;;5021941;28;20083;-69
2023/11/10 12:10:31;;;;;;;1.00;0.70;;;21.40;54.20;;;;;;5021353;28;20533;-73
2023/11/10 12:12:57;;;;;;;1.45;0.88;;;21.50;54.30;;;;;;5022641;28;20497;-72
2023/11/10 12:15:24;;;;;;;1.05;0.68;;;21.70;53.80;;;;;;5019285;28;20479;-71
2023/11/10 12:17:50;;;;;;;1.10;0.65;;;21.60;53.70;;;;;;5029574;28;20033;-72
2023/11/10 12:20:17;;;;;;;1.88;0.75;;;21.60;53.60;;;;;;5020235;28;20473;-72
2023/11/10 12:22:55;;;;;;;1.90;0.75;;;21.60;53.60;;;;;;5021676;28;20103;-70
2023/11/10 12:25:22;;;;;;;1.10;0.60;;;21.60;53.60;;;;;;5021602;28;20044;-71
2023/11/10 12:27:50;;;;;;;1.00;0.80;;;21.50;53.70;;;;;;5022547;28;20466;-69
2023/11/10 12:30:16;;;;;;;1.17;0.60;;;21.50;53.80;;;;;;5019960;28;20458;-70
2023/11/10 12:32:42;;;;;;;0.85;0.70;;;21.50;53.80;;;;;;4988635;28;20049;-71
2023/11/10 12:35:09;;;;;;;0.63;0.60;;;21.50;53.80;;;;;;5020810;28;20066;-71
2023/11/10 12:37:36;;;;;;;0.93;0.63;;;21.50;53.90;;;;;;5003787;28;20029;-66
2023/11/10 12:40:10;;;;;;;1.67;1.00;;;21.50;53.90;;;;;;5020421;28;20111;-66
2023/11/10 12:42:35;;;;;;;0.98;0.65;;;21.50;54.00;;;;;;5021829;28;20505;-66
2023/11/10 12:45:01;;;;;;;1.38;0.60;;;21.50;54.00;;;;;;5022881;28;20025;-64
2023/11/10 12:47:33;;;;;;;1.10;0.73;;;21.50;54.00;;;;;;5018381;28;20049;-66